createdAt,value
2023-03-19T00:00:07.881Z,22.92
2023-03-19T00:02:40.434Z,18.20
2023-03-19T00:05:12.797Z,15.75
2023-03-19T00:07:45.284Z,16.20
2023-03-19T00:10:18.462Z,15.73
2023-03-19T00:12:50.882Z,9.77
2023-03-19T00:15:23.181Z,9.05
2023-03-19T00:17:55.949Z,9.20
2023-03-19T00:20:28.262Z,10.43
2023-03-19T00:23:01.037Z,11.15
2023-03-19T00:25:34.179Z,13.30
2023-03-19T00:28:06.607Z,17.40
2023-03-19T00:30:39.278Z,17.48
2023-03-19T00:33:11.628Z,15.40
2023-03-19T00:35:43.980Z,14.82
2023-03-19T00:38:16.312Z,10.93
2023-03-19T00:40:49.306Z,10.07
2023-03-19T00:43:21.718Z,8.57
2023-03-19T00:45:54.244Z,12.98
2023-03-19T00:48:26.615Z,14.15
2023-03-19T00:51:02.280Z,11.85
2023-03-19T00:53:37.093Z,9.65
2023-03-19T00:56:11.567Z,10.63
2023-03-19T00:58:44.478Z,9.27
2023-03-19T01:01:18.350Z,8.25
2023-03-19T01:03:50.732Z,7.68
2023-03-19T01:06:23.033Z,9.10
2023-03-19T01:08:55.411Z,9.77
2023-03-19T01:11:28.446Z,10.38
2023-03-19T01:14:00.919Z,10.35
2023-03-19T01:16:34.093Z,15.82
2023-03-19T01:19:06.913Z,13.85
2023-03-19T01:21:39.759Z,16.30
2023-03-19T01:24:12.201Z,18.45
2023-03-19T01:26:45.782Z,18.08
2023-03-19T01:31:57.253Z,14.25
2023-03-19T01:35:09.272Z,16.23
2023-03-19T01:37:42.094Z,11.52
2023-03-19T01:40:15.301Z,11.43
2023-03-19T01:42:53.603Z,8.32
2023-03-19T01:46:08.413Z,6.82
2023-03-19T01:48:59.653Z,10.30
2023-03-19T01:51:38.248Z,10.77
2023-03-19T01:54:25.254Z,7.18
2023-03-19T01:57:18.717Z,8.15
2023-03-19T02:00:08.303Z,5.13
2023-03-19T02:02:53.399Z,7.78
2023-03-19T02:06:05.603Z,8.98
2023-03-19T02:08:40.470Z,7.88
2023-03-19T02:11:13.964Z,8.30
2023-03-19T02:13:46.748Z,7.70
2023-03-19T02:16:20.206Z,9.63
2023-03-19T02:18:53.510Z,9.07
2023-03-19T02:21:26.000Z,8.75
2023-03-19T02:24:07.120Z,10.60
2023-03-19T02:26:52.791Z,11.00
2023-03-19T02:29:25.538Z,11.25
2023-03-19T02:31:58.657Z,10.77
2023-03-19T02:34:36.773Z,12.23
2023-03-19T02:37:16.369Z,10.32
2023-03-19T02:39:57.084Z,10.00
2023-03-19T02:42:30.582Z,8.80
2023-03-19T02:45:03.312Z,9.25
2023-03-19T02:47:35.868Z,9.65
2023-03-19T02:50:09.616Z,8.57
2023-03-19T02:52:41.901Z,9.05
2023-03-19T02:55:14.408Z,10.10
2023-03-19T02:57:47.712Z,9.55
2023-03-19T03:00:20.437Z,11.05
2023-03-19T03:02:52.795Z,9.43
2023-03-19T03:05:25.234Z,11.43
2023-03-19T03:07:58.067Z,10.25
2023-03-19T03:10:31.456Z,12.98
2023-03-19T03:13:04.849Z,11.68
2023-03-19T03:15:37.534Z,9.63
2023-03-19T03:18:10.471Z,9.68
2023-03-19T03:20:43.019Z,10.52
2023-03-19T03:23:16.354Z,9.98
2023-03-19T03:25:49.329Z,14.05
2023-03-19T03:28:22.532Z,16.20
2023-03-19T03:30:58.489Z,12.55
2023-03-19T03:33:30.930Z,18.27
2023-03-19T03:36:03.794Z,15.30
2023-03-19T03:38:36.511Z,12.75
2023-03-19T03:41:08.924Z,14.45
2023-03-19T03:43:42.373Z,18.10
2023-03-19T03:46:14.815Z,14.38
2023-03-19T03:48:48.649Z,12.30
2023-03-19T03:51:21.533Z,10.98
2023-03-19T03:53:53.950Z,10.88
2023-03-19T03:56:26.511Z,12.20
2023-03-19T03:59:00.445Z,9.90
2023-03-19T04:01:33.232Z,10.88
2023-03-19T04:04:05.606Z,9.05
2023-03-19T04:06:38.270Z,6.00
2023-03-19T04:09:21.148Z,7.80
2023-03-19T04:11:53.452Z,8.77
2023-03-19T04:14:27.189Z,8.43
2023-03-19T04:16:59.816Z,8.25
2023-03-19T04:19:32.859Z,6.93
2023-03-19T04:22:07.022Z,7.80
2023-03-19T04:24:39.303Z,6.55
2023-03-19T04:27:11.835Z,5.07
2023-03-19T04:29:46.491Z,4.90
2023-03-19T04:32:19.197Z,5.55
2023-03-19T04:34:52.104Z,6.20
2023-03-19T04:37:24.707Z,5.40
2023-03-19T04:39:58.912Z,5.75
2023-03-19T04:42:32.190Z,10.23
2023-03-19T04:45:21.297Z,7.03
2023-03-19T04:47:53.700Z,8.30
2023-03-19T04:50:27.247Z,9.02
2023-03-19T04:52:59.900Z,9.45
2023-03-19T04:55:33.424Z,6.13
2023-03-19T04:58:20.718Z,6.47
2023-03-19T05:01:01.535Z,7.82
2023-03-19T05:03:57.013Z,11.77
2023-03-19T05:06:30.594Z,15.25
2023-03-19T05:09:03.340Z,14.93
2023-03-19T05:11:36.068Z,13.23
2023-03-19T05:14:17.025Z,9.50
2023-03-19T05:17:06.803Z,7.68
2023-03-19T05:20:04.143Z,8.80
2023-03-19T05:22:38.172Z,11.93
2023-03-19T05:25:10.948Z,11.27
2023-03-19T05:27:45.605Z,8.63
2023-03-19T05:30:26.821Z,10.65
2023-03-19T05:33:00.996Z,11.15
2023-03-19T05:35:40.421Z,8.70
2023-03-19T05:38:23.776Z,9.32
2023-03-19T05:41:04.912Z,9.05
2023-03-19T05:43:46.785Z,6.40
2023-03-19T05:46:29.560Z,10.40
2023-03-19T05:49:03.184Z,8.65
2023-03-19T05:51:36.154Z,9.70
2023-03-19T05:54:08.885Z,8.07
2023-03-19T05:56:57.189Z,8.38
2023-03-19T05:59:42.330Z,8.32
2023-03-19T06:02:36.570Z,8.48
2023-03-19T06:05:32.705Z,9.88
2023-03-19T06:08:25.528Z,9.20
2023-03-19T06:11:14.670Z,9.50
2023-03-19T06:13:48.917Z,10.98
2023-03-19T06:16:22.546Z,8.23
2023-03-19T06:18:59.049Z,7.57
2023-03-19T06:21:35.737Z,10.77
2023-03-19T06:24:09.508Z,11.15
2023-03-19T06:26:41.882Z,8.73
2023-03-19T06:29:20.112Z,23.20
2023-03-19T06:31:58.182Z,14.77
2023-03-19T06:34:51.108Z,4.68
2023-03-19T06:37:24.699Z,4.15
2023-03-19T06:39:57.385Z,3.25
2023-03-19T06:42:30.050Z,2.28
2023-03-19T06:45:02.872Z,3.08
2023-03-19T06:47:35.211Z,3.10
2023-03-19T06:50:08.733Z,2.25
2023-03-19T06:52:41.886Z,4.78
2023-03-19T06:55:14.182Z,5.25
2023-03-19T06:57:48.550Z,8.07
2023-03-19T07:00:21.189Z,12.00
2023-03-19T07:02:53.464Z,3.33
2023-03-19T07:05:25.895Z,2.88
2023-03-19T07:07:59.084Z,2.53
2023-03-19T07:10:31.415Z,10.40
2023-03-19T07:13:03.810Z,4.22
2023-03-19T07:15:36.104Z,3.60
2023-03-19T07:18:08.378Z,3.47
2023-03-19T07:20:40.642Z,13.70
2023-03-19T07:23:13.600Z,4.38
2023-03-19T07:25:46.966Z,2.65
2023-03-19T07:28:19.255Z,4.00
2023-03-19T07:30:51.751Z,3.33
2023-03-19T07:33:24.137Z,2.13
2023-03-19T07:35:56.638Z,3.45
2023-03-19T07:38:29.829Z,3.05
2023-03-19T07:41:03.049Z,2.78
2023-03-19T07:43:35.511Z,3.28
2023-03-19T07:46:08.149Z,2.70
2023-03-19T07:48:40.598Z,1.90
2023-03-19T07:51:12.985Z,1.52
2023-03-19T07:53:45.978Z,1.85
2023-03-19T07:56:18.322Z,3.35
2023-03-19T07:58:51.052Z,3.70
2023-03-19T08:01:23.404Z,4.15
2023-03-19T08:03:55.706Z,4.15
2023-03-19T08:06:28.020Z,4.47
2023-03-19T08:09:01.466Z,4.63
2023-03-19T08:11:33.894Z,4.38
2023-03-19T08:14:06.301Z,5.00
2023-03-19T08:16:38.646Z,4.40
2023-03-19T08:19:10.993Z,4.60
2023-03-19T08:21:43.339Z,4.43
2023-03-19T08:24:16.975Z,5.72
2023-03-19T08:26:50.174Z,5.32
2023-03-19T08:29:22.536Z,5.10
2023-03-19T08:31:55.937Z,4.53
2023-03-19T08:34:28.259Z,5.03
2023-03-19T08:37:01.000Z,4.45
2023-03-19T08:39:34.130Z,5.80
2023-03-19T08:42:06.760Z,5.32
2023-03-19T08:44:39.242Z,4.40
2023-03-19T08:47:11.814Z,4.68
2023-03-19T08:49:44.356Z,5.07
2023-03-19T08:52:16.863Z,4.82
2023-03-19T08:54:49.907Z,4.57
2023-03-19T08:57:22.619Z,4.82
2023-03-19T08:59:55.032Z,5.68
2023-03-19T09:02:27.510Z,5.00
2023-03-19T09:04:59.899Z,5.13
2023-03-19T09:07:32.185Z,5.47
2023-03-19T09:10:06.589Z,4.78
2023-03-19T09:12:39.212Z,4.45
2023-03-19T09:15:11.500Z,6.35
2023-03-19T09:17:44.019Z,6.10
2023-03-19T09:20:16.416Z,5.13
2023-03-19T09:22:48.873Z,4.88
2023-03-19T09:25:21.917Z,5.95
2023-03-19T09:27:54.311Z,3.50
2023-03-19T09:30:26.818Z,4.40
2023-03-19T09:32:59.247Z,4.75
2023-03-19T09:35:32.440Z,2.83
2023-03-19T09:38:05.357Z,3.13
2023-03-19T09:40:43.315Z,2.40
2023-03-19T09:43:35.391Z,2.55
2023-03-19T09:46:14.105Z,1.55
2023-03-19T09:48:55.824Z,1.35
2023-03-19T09:51:33.699Z,1.85
2023-03-19T09:54:13.597Z,2.30
2023-03-19T09:59:19.824Z,1.42
2023-03-19T10:01:58.064Z,1.88
2023-03-19T10:04:42.204Z,2.13
2023-03-19T10:07:29.018Z,2.00
2023-03-19T10:10:22.303Z,2.70
2023-03-19T10:13:07.223Z,2.92
2023-03-19T10:15:43.157Z,2.70
2023-03-19T10:18:18.678Z,2.40
2023-03-19T10:20:55.981Z,2.92
2023-03-19T10:23:45.386Z,2.53
2023-03-19T10:26:19.163Z,2.15
2023-03-19T10:29:03.978Z,3.30
2023-03-19T10:31:43.735Z,2.72
2023-03-19T10:34:33.159Z,3.40
2023-03-19T10:37:13.386Z,2.95
2023-03-19T10:39:46.821Z,3.15
2023-03-19T10:42:33.206Z,2.22
2023-03-19T10:45:18.881Z,1.98
2023-03-19T10:47:52.518Z,2.55
2023-03-19T10:50:30.339Z,2.78
2023-03-19T10:53:07.020Z,2.45
2023-03-19T10:55:46.724Z,2.58
2023-03-19T11:00:58.257Z,2.53
2023-03-19T11:03:33.411Z,3.50
2023-03-19T11:06:16.717Z,2.42
2023-03-19T11:08:55.106Z,2.17
2023-03-19T11:11:34.433Z,1.70
2023-03-19T11:14:09.265Z,2.72
2023-03-19T11:16:56.235Z,2.22
2023-03-19T11:19:30.108Z,3.35
2023-03-19T11:22:09.811Z,1.95
2023-03-19T11:24:49.882Z,2.13
2023-03-19T11:27:31.109Z,2.17
2023-03-19T11:30:12.904Z,2.33
2023-03-19T11:33:15.188Z,2.60
2023-03-19T11:35:57.944Z,4.28
2023-03-19T11:38:39.077Z,5.60
2023-03-19T11:41:20.715Z,3.20
2023-03-19T11:44:02.041Z,4.22
2023-03-19T11:46:41.020Z,4.25
2023-03-19T11:49:39.749Z,4.55
2023-03-19T11:52:18.001Z,4.20
2023-03-19T11:55:04.038Z,4.00
2023-03-19T11:57:55.984Z,6.03
2023-03-19T12:00:34.210Z,4.75
2023-03-19T12:03:46.819Z,4.13
2023-03-19T12:06:29.778Z,3.72
2023-03-19T12:09:09.548Z,3.08
2023-03-19T12:11:52.031Z,4.13
2023-03-19T12:14:36.067Z,6.07
2023-03-19T12:17:46.655Z,5.57
2023-03-19T12:20:48.771Z,5.32
2023-03-19T12:23:36.154Z,3.78
2023-03-19T12:26:12.472Z,4.53
2023-03-19T12:28:51.835Z,4.60
2023-03-19T12:31:54.849Z,5.72
2023-03-19T12:34:33.554Z,4.45
2023-03-19T12:37:17.049Z,4.95
2023-03-19T12:40:04.933Z,3.33
2023-03-19T12:42:39.659Z,4.38
2023-03-19T12:45:26.112Z,4.22
2023-03-19T12:48:02.799Z,4.78
2023-03-19T12:50:39.298Z,4.75
2023-03-19T12:53:32.149Z,4.25
2023-03-19T12:56:12.483Z,4.80
2023-03-19T12:58:55.185Z,4.05
2023-03-19T13:01:33.477Z,4.25
2023-03-19T13:04:11.457Z,4.10
2023-03-19T13:06:49.452Z,4.13
2023-03-19T13:09:29.623Z,5.72
2023-03-19T13:12:09.803Z,5.40
2023-03-19T13:14:52.300Z,4.47
2023-03-19T13:17:30.947Z,4.68
2023-03-19T13:20:15.470Z,4.43
2023-03-19T13:22:54.900Z,4.40
2023-03-19T13:25:32.055Z,5.30
2023-03-19T13:28:09.797Z,4.78
2023-03-19T13:30:59.307Z,4.85
2023-03-19T13:33:34.401Z,5.10
2023-03-19T13:36:13.859Z,4.35
2023-03-19T13:41:50.172Z,3.65
2023-03-19T13:44:35.150Z,4.03
2023-03-19T13:47:39.543Z,4.93
2023-03-19T13:50:50.333Z,4.47
2023-03-19T13:53:35.585Z,4.00
2023-03-19T13:56:22.540Z,4.63
2023-03-19T13:59:23.391Z,4.43
2023-03-19T14:01:57.164Z,4.32
2023-03-19T14:04:31.552Z,4.22
2023-03-19T14:07:12.870Z,4.63
2023-03-19T14:09:48.596Z,4.18
2023-03-19T14:12:25.502Z,3.85
2023-03-19T14:15:01.563Z,4.55
2023-03-19T14:17:37.129Z,4.50
2023-03-19T14:20:37.053Z,4.75
2023-03-19T14:23:23.302Z,4.25
2023-03-19T14:26:06.602Z,4.38
2023-03-19T14:28:46.682Z,4.43
2023-03-19T14:31:26.069Z,4.18
2023-03-19T14:36:38.098Z,7.20
2023-03-19T14:39:20.936Z,4.90
2023-03-19T14:42:01.420Z,4.60
2023-03-19T14:45:08.382Z,4.47
2023-03-19T14:48:15.575Z,3.63
2023-03-19T14:51:12.427Z,4.10
2023-03-19T14:53:49.025Z,4.45
2023-03-19T14:56:25.817Z,5.35
2023-03-19T14:59:02.920Z,4.35
2023-03-19T15:01:40.422Z,3.80
2023-03-19T15:04:15.398Z,5.00
2023-03-19T15:06:54.526Z,5.88
2023-03-19T15:09:30.975Z,4.45
2023-03-19T15:12:33.008Z,4.15
2023-03-19T15:15:20.480Z,3.97
2023-03-19T15:18:04.276Z,4.28
2023-03-19T15:20:41.721Z,3.97
2023-03-19T15:23:26.787Z,4.07
2023-03-19T15:26:02.351Z,5.50
2023-03-19T15:28:46.713Z,4.35
2023-03-19T15:31:31.933Z,4.00
2023-03-19T15:36:57.903Z,4.55
2023-03-19T15:39:34.557Z,4.35
2023-03-19T15:42:06.961Z,4.95
2023-03-19T15:44:42.834Z,5.53
2023-03-19T15:47:20.247Z,4.47
2023-03-19T15:49:56.740Z,5.63
2023-03-19T15:52:31.884Z,4.28
2023-03-19T15:55:06.736Z,4.82
2023-03-19T15:57:41.137Z,6.45
2023-03-19T16:00:15.039Z,5.78
2023-03-19T16:02:50.821Z,4.82
2023-03-19T16:05:25.369Z,4.75
2023-03-19T16:07:59.656Z,21.67
2023-03-19T16:10:36.355Z,5.32
2023-03-19T16:13:27.855Z,4.03
2023-03-19T16:16:05.350Z,4.97
2023-03-19T16:18:42.632Z,5.80
2023-03-19T16:21:17.430Z,5.57
2023-03-19T16:24:00.875Z,4.60
2023-03-19T16:26:39.064Z,3.22
2023-03-19T16:29:20.177Z,3.17
2023-03-19T16:31:56.556Z,3.58
2023-03-19T16:34:40.140Z,3.80
2023-03-19T16:37:34.126Z,4.57
2023-03-19T16:40:39.597Z,3.70
2023-03-19T16:43:17.943Z,3.22
2023-03-19T16:45:51.774Z,5.68
2023-03-19T16:48:24.042Z,8.50
2023-03-19T16:50:56.638Z,3.97
2023-03-19T16:53:30.813Z,3.42
2023-03-19T16:56:03.460Z,3.78
2023-03-19T16:58:41.756Z,3.88
2023-03-19T17:01:17.364Z,5.47
2023-03-19T17:03:50.920Z,3.65
2023-03-19T17:06:23.304Z,2.80
2023-03-19T17:08:55.588Z,4.18
2023-03-19T17:11:31.133Z,11.25
2023-03-19T17:14:06.072Z,15.15
2023-03-19T17:16:38.550Z,13.90
2023-03-19T17:19:17.324Z,6.72
2023-03-19T17:21:52.880Z,3.37
2023-03-19T17:24:27.407Z,3.58
2023-03-19T17:27:01.798Z,2.03
2023-03-19T17:29:34.871Z,2.00
2023-03-19T17:32:16.292Z,1.80
2023-03-19T17:34:48.708Z,3.30
2023-03-19T17:37:21.106Z,3.15
2023-03-19T17:39:54.001Z,4.07
2023-03-19T17:42:26.421Z,8.70
2023-03-19T17:45:00.202Z,8.38
2023-03-19T17:47:34.582Z,15.10
2023-03-19T17:50:13.476Z,17.20
2023-03-19T17:52:46.376Z,20.23
2023-03-19T17:55:20.527Z,25.83
2023-03-19T17:57:53.479Z,24.10
2023-03-19T18:00:26.460Z,26.73
2023-03-19T18:02:58.800Z,22.27
2023-03-19T18:05:31.141Z,23.23
2023-03-19T18:08:03.447Z,24.38
2023-03-19T18:10:36.267Z,26.15
2023-03-19T18:13:09.205Z,26.50
2023-03-19T18:15:44.470Z,26.80
2023-03-19T18:18:20.645Z,33.90
2023-03-19T18:20:53.023Z,34.20
2023-03-19T18:23:25.349Z,39.70
2023-03-19T18:25:57.607Z,34.83
2023-03-19T18:28:30.001Z,28.10
2023-03-19T18:31:03.626Z,26.35
2023-03-19T18:33:35.919Z,26.70
2023-03-19T18:36:08.583Z,27.73
2023-03-19T18:38:40.892Z,23.75
2023-03-19T18:41:18.033Z,18.63
2023-03-19T18:43:50.303Z,20.30
2023-03-19T18:46:25.974Z,24.40
2023-03-19T18:49:00.970Z,22.08
2023-03-19T18:51:33.391Z,20.55
2023-03-19T18:54:06.030Z,24.45
2023-03-19T18:56:38.884Z,35.42
2023-03-19T18:59:20.798Z,33.92
2023-03-19T19:02:00.123Z,33.08
2023-03-19T19:07:04.955Z,64.72
2023-03-19T19:09:37.275Z,71.63
2023-03-19T19:12:13.470Z,45.72
2023-03-19T19:14:46.577Z,51.78
2023-03-19T19:17:23.353Z,48.00
2023-03-19T19:19:55.782Z,48.75
2023-03-19T19:22:29.122Z,54.45
2023-03-19T19:25:01.509Z,54.47
2023-03-19T19:27:33.849Z,47.42
2023-03-19T19:30:10.321Z,35.90
2023-03-19T19:32:44.866Z,44.17
2023-03-19T19:35:22.753Z,38.78
2023-03-19T19:37:55.642Z,49.83
2023-03-19T19:40:30.892Z,49.85
2023-03-19T19:43:03.380Z,42.45
2023-03-19T19:45:37.802Z,43.38
2023-03-19T19:48:15.367Z,41.80
2023-03-19T19:50:48.182Z,39.72
2023-03-19T19:53:22.619Z,38.22
2023-03-19T19:55:55.225Z,37.90
2023-03-19T19:58:30.640Z,38.55
2023-03-19T20:01:04.635Z,37.03
2023-03-19T20:03:37.972Z,33.92
2023-03-19T20:06:11.254Z,27.70
2023-03-19T20:08:44.272Z,31.38
2023-03-19T20:11:18.776Z,32.45
2023-03-19T20:13:54.808Z,34.13
2023-03-19T20:16:28.021Z,37.55
2023-03-19T20:19:01.393Z,32.60
2023-03-19T20:21:33.812Z,32.83
2023-03-19T20:24:06.592Z,29.85
2023-03-19T20:26:39.010Z,25.98
2023-03-19T20:29:14.142Z,24.55
2023-03-19T20:31:46.639Z,20.00
2023-03-19T20:34:36.360Z,20.70
2023-03-19T20:37:11.055Z,18.80
2023-03-19T20:39:43.754Z,23.50
2023-03-19T20:42:16.271Z,20.35
2023-03-19T20:44:52.002Z,24.23
2023-03-19T20:47:25.020Z,26.15
2023-03-19T20:49:58.213Z,29.42
2023-03-19T20:52:30.593Z,31.73
2023-03-19T20:55:03.349Z,32.28
2023-03-19T20:57:35.785Z,28.35
2023-03-19T21:00:21.604Z,27.17
2023-03-19T21:02:55.623Z,26.25
2023-03-19T21:05:35.785Z,28.48
2023-03-19T21:08:13.999Z,31.73
2023-03-19T21:10:48.251Z,31.15
2023-03-19T21:13:21.140Z,24.42
2023-03-19T21:15:53.974Z,21.60
2023-03-19T21:18:26.570Z,22.13
2023-03-19T21:20:59.740Z,18.77
2023-03-19T21:23:36.534Z,15.85
2023-03-19T21:26:15.411Z,15.07
2023-03-19T21:28:49.968Z,15.23
2023-03-19T21:31:22.335Z,15.52
2023-03-19T21:33:57.210Z,16.60
2023-03-19T21:36:31.765Z,19.35
2023-03-19T21:39:04.244Z,21.75
2023-03-19T21:41:37.136Z,27.23
2023-03-19T21:44:14.316Z,22.02
2023-03-19T21:46:48.206Z,19.50
2023-03-19T21:49:21.169Z,17.13
2023-03-19T21:51:56.328Z,18.98
2023-03-19T21:54:28.794Z,23.13
2023-03-19T21:57:01.546Z,22.60
2023-03-19T21:59:33.943Z,18.70
2023-03-19T22:02:37.971Z,22.50
2023-03-19T22:05:22.372Z,24.83
2023-03-19T22:07:55.880Z,21.85
2023-03-19T22:10:29.120Z,17.40
2023-03-19T22:13:02.077Z,15.68
2023-03-19T22:15:36.925Z,15.38
2023-03-19T22:18:13.585Z,14.60
2023-03-19T22:20:46.811Z,18.85
2023-03-19T22:23:21.040Z,25.23
2023-03-19T22:25:53.684Z,32.17
2023-03-19T22:28:30.863Z,40.65
2023-03-19T22:31:03.861Z,33.90
2023-03-19T22:33:36.419Z,39.28
2023-03-19T22:36:11.695Z,28.58
2023-03-19T22:38:46.131Z,17.95
2023-03-19T22:41:26.090Z,18.50
2023-03-19T22:44:00.308Z,18.30
2023-03-19T22:46:33.667Z,17.50
2023-03-19T22:49:12.765Z,12.88
2023-03-19T22:51:45.286Z,9.27
2023-03-19T22:54:18.241Z,6.45
2023-03-19T22:56:50.597Z,5.32
2023-03-19T22:59:22.967Z,3.80
2023-03-19T23:01:57.290Z,4.03
2023-03-19T23:04:31.756Z,6.20
2023-03-19T23:07:04.293Z,5.38
2023-03-19T23:09:37.425Z,3.30
2023-03-19T23:12:09.898Z,5.43
2023-03-19T23:14:42.308Z,5.47
2023-03-19T23:17:16.704Z,12.40
2023-03-19T23:19:49.780Z,14.07
2023-03-19T23:22:22.153Z,23.52
2023-03-19T23:24:55.948Z,35.42
2023-03-19T23:27:28.334Z,28.75
2023-03-19T23:30:02.347Z,28.67
2023-03-19T23:32:35.272Z,28.02
2023-03-19T23:35:15.406Z,24.95
2023-03-19T23:37:47.792Z,35.67
2023-03-19T23:40:21.917Z,35.08
2023-03-19T23:42:55.513Z,35.38
2023-03-19T23:45:34.271Z,31.17
2023-03-19T23:48:12.805Z,24.92
2023-03-19T23:50:46.589Z,22.63
2023-03-19T23:53:21.510Z,21.65
2023-03-19T23:55:57.982Z,14.50
2023-03-19T23:58:39.136Z,15.32
